createdAt,value
2018-03-16T00:02:00.016Z,97058.83
2018-03-16T00:04:28.144Z,97061.08
2018-03-16T00:06:56.275Z,97063.05
2018-03-16T00:09:24.480Z,97062.25
2018-03-16T00:11:52.611Z,97062.25
2018-03-16T00:14:20.830Z,97061.45
2018-03-16T00:16:50.104Z,97055.61
2018-03-16T00:19:18.255Z,97057.74
2018-03-16T00:21:46.418Z,97056.14
2018-03-16T00:24:14.568Z,97058.70
2018-03-16T00:26:43.364Z,97051.52
2018-03-16T00:29:11.503Z,97061.20
2018-03-16T00:31:39.722Z,97065.45
2018-03-16T00:34:07.873Z,97063.05
2018-03-16T00:36:36.092Z,97062.25
2018-03-16T00:39:04.235Z,97064.80
2018-03-16T00:41:32.355Z,97060.02
2018-03-16T00:44:00.494Z,97055.48
2018-03-16T00:46:28.659Z,97066.77
2018-03-16T00:48:56.864Z,97067.30
2018-03-16T00:51:25.014Z,97071.55
2018-03-16T00:53:53.198Z,97077.91
2018-03-16T00:56:21.351Z,97073.53
2018-03-16T00:58:49.473Z,97075.27
2018-03-16T01:01:17.709Z,97083.62
2018-03-16T01:03:45.874Z,97086.67
2018-03-16T01:06:14.003Z,97084.66
2018-03-16T01:08:48.254Z,97086.52
2018-03-16T01:11:16.391Z,97087.03
2018-03-16T01:13:44.495Z,97082.25
2018-03-16T01:16:12.684Z,97088.88
2018-03-16T01:18:40.865Z,97084.78
2018-03-16T01:21:09.075Z,97088.61
2018-03-16T01:23:37.212Z,97090.20
2018-03-16T01:26:05.804Z,97086.88
2018-03-16T01:28:33.976Z,97080.64
2018-03-16T01:31:02.203Z,97091.53
2018-03-16T01:33:30.522Z,97093.10
2018-03-16T01:35:58.679Z,97085.42
2018-03-16T01:38:26.805Z,97082.77
2018-03-16T01:40:54.952Z,97079.59
2018-03-16T01:43:23.117Z,97093.09
2018-03-16T01:45:51.276Z,97088.87
2018-03-16T01:48:19.488Z,97099.59
2018-03-16T01:50:48.526Z,97105.18
2018-03-16T01:53:17.610Z,97101.73
2018-03-16T01:55:45.791Z,97108.23
2018-03-16T01:58:14.029Z,97110.48
2018-03-16T02:00:42.185Z,97109.80
2018-03-16T02:03:10.360Z,97113.26
2018-03-16T02:05:38.540Z,97109.56
2018-03-16T02:08:06.750Z,97105.30
2018-03-16T02:10:34.899Z,97107.95
2018-03-16T02:13:03.062Z,97108.23
2018-03-16T02:15:31.284Z,97103.98
2018-03-16T02:17:59.440Z,97113.78
2018-03-16T02:20:27.599Z,97112.45
2018-03-16T02:22:55.727Z,97108.36
2018-03-16T02:25:23.855Z,97116.03
2018-03-16T02:27:51.981Z,97104.63
2018-03-16T02:30:20.149Z,97111.00
2018-03-16T02:32:48.264Z,97114.17
2018-03-16T02:35:16.433Z,97117.88
2018-03-16T02:37:44.632Z,97123.98
2018-03-16T02:40:12.780Z,97123.98
2018-03-16T02:42:41.107Z,97143.45
2018-03-16T02:45:10.214Z,97174.48
2018-03-16T02:47:38.355Z,97160.70
2018-03-16T02:50:06.478Z,97164.83
2018-03-16T02:52:34.667Z,97181.11
2018-03-16T02:55:02.848Z,97182.18
2018-03-16T02:57:30.979Z,97189.09
2018-03-16T02:59:59.128Z,97196.23
2018-03-16T03:02:27.264Z,97172.22
2018-03-16T03:04:55.391Z,97168.91
2018-03-16T03:07:23.527Z,97181.49
2018-03-16T03:09:51.654Z,97196.59
2018-03-16T03:12:19.825Z,97204.42
2018-03-16T03:14:47.953Z,97208.27
2018-03-16T03:17:16.099Z,97216.34
2018-03-16T03:19:45.631Z,97217.67
2018-03-16T03:22:13.790Z,97216.22
2018-03-16T03:24:41.914Z,97212.66
2018-03-16T03:27:10.518Z,97218.48
2018-03-16T03:29:38.653Z,97210.41
2018-03-16T03:32:06.797Z,97213.58
2018-03-16T03:34:34.939Z,97213.83
2018-03-16T03:37:03.083Z,97207.34
2018-03-16T03:39:31.249Z,97198.99
2018-03-16T03:41:59.383Z,97198.99
2018-03-16T03:44:27.530Z,97199.11
2018-03-16T03:46:55.667Z,97197.39
2018-03-16T03:49:23.786Z,97204.94
2018-03-16T03:51:51.928Z,97201.36
2018-03-16T03:54:20.062Z,97198.59
2018-03-16T03:56:48.199Z,97197.92
2018-03-16T03:59:16.346Z,97191.17
2018-03-16T04:01:44.603Z,97187.07
2018-03-16T04:04:12.746Z,97195.03
2018-03-16T04:06:40.865Z,97191.57
2018-03-16T04:09:09.244Z,97188.92
2018-03-16T04:11:37.361Z,97187.59
2018-03-16T04:14:05.514Z,97181.89
2018-03-16T04:16:33.646Z,97188.40
2018-03-16T04:19:01.786Z,97183.09
2018-03-16T04:21:29.925Z,97193.30
2018-03-16T04:23:58.047Z,97189.44
2018-03-16T04:26:26.186Z,97184.27
2018-03-16T04:28:54.341Z,97174.21
2018-03-16T04:31:22.490Z,97183.09
2018-03-16T04:33:50.623Z,97180.69
2018-03-16T04:36:18.771Z,97179.36
2018-03-16T04:38:47.378Z,97177.91
2018-03-16T04:41:15.506Z,97184.55
2018-03-16T04:43:43.636Z,97192.09
2018-03-16T04:46:11.841Z,97189.44
2018-03-16T04:48:39.980Z,97194.49
2018-03-16T04:51:08.149Z,97196.34
2018-03-16T04:53:36.294Z,97201.77
2018-03-16T04:56:04.471Z,97205.06
2018-03-16T04:58:32.611Z,97206.53
2018-03-16T05:01:00.766Z,97203.89
2018-03-16T05:03:28.902Z,97206.02
2018-03-16T05:05:57.042Z,97206.94
2018-03-16T05:08:25.201Z,97209.59
2018-03-16T05:10:54.300Z,97215.55
2018-03-16T05:13:22.443Z,97212.89
2018-03-16T05:15:50.572Z,97206.66
2018-03-16T05:18:18.710Z,97206.27
2018-03-16T05:20:46.842Z,97206.55
2018-03-16T05:23:14.976Z,97206.27
2018-03-16T05:25:43.098Z,97209.72
2018-03-16T05:28:11.260Z,97203.21
2018-03-16T05:30:39.587Z,97198.72
2018-03-16T05:33:07.724Z,97205.47
2018-03-16T05:35:35.862Z,97205.75
2018-03-16T05:38:04.005Z,97203.63
2018-03-16T05:40:32.131Z,97202.59
2018-03-16T05:43:00.275Z,97214.80
2018-03-16T05:45:28.415Z,97207.09
2018-03-16T05:47:56.549Z,97208.17
2018-03-16T05:50:24.696Z,97203.00
2018-03-16T05:52:52.820Z,97193.85
2018-03-16T05:55:20.990Z,97205.02
2018-03-16T05:57:49.124Z,97200.25
2018-03-16T06:00:17.253Z,97196.55
2018-03-16T06:02:45.427Z,97196.39
2018-03-16T06:05:13.559Z,97190.84
2018-03-16T06:07:41.744Z,97195.48
2018-03-16T06:10:09.890Z,97191.66
2018-03-16T06:12:38.024Z,97198.02
2018-03-16T06:15:06.262Z,97198.70
2018-03-16T06:17:34.392Z,97190.59
2018-03-16T06:20:02.621Z,97192.31
2018-03-16T06:22:31.466Z,97197.09
2018-03-16T06:24:59.604Z,97192.72
2018-03-16T06:27:27.749Z,97194.20
2018-03-16T06:29:55.881Z,97196.34
2018-03-16T06:32:24.075Z,97199.52
2018-03-16T06:34:52.382Z,97196.06
2018-03-16T06:37:21.041Z,97190.36
2018-03-16T06:39:49.172Z,97200.20
2018-03-16T06:42:17.308Z,97194.10
2018-03-16T06:44:45.590Z,97200.61
2018-03-16T06:47:13.584Z,97190.38
2018-03-16T06:49:41.741Z,97193.83
2018-03-16T06:52:09.901Z,97198.09
2018-03-16T06:54:38.031Z,97197.97
2018-03-16T06:57:06.179Z,97197.17
2018-03-16T06:59:34.320Z,97198.09
2018-03-16T07:02:02.457Z,97201.67
2018-03-16T07:04:30.606Z,97207.91
2018-03-16T07:06:58.744Z,97206.34
2018-03-16T07:09:27.004Z,97217.23
2018-03-16T07:11:55.144Z,97215.39
2018-03-16T07:14:23.279Z,97219.49
2018-03-16T07:16:51.415Z,97223.59
2018-03-16T07:19:19.561Z,97220.02
2018-03-16T07:21:47.703Z,97227.18
2018-03-16T07:24:15.842Z,97226.81
2018-03-16T07:26:43.974Z,97233.17
2018-03-16T07:29:12.115Z,97234.63
2018-03-16T07:31:40.250Z,97242.59
2018-03-16T07:34:08.404Z,97242.19
2018-03-16T07:36:36.552Z,97247.25
2018-03-16T07:39:04.711Z,97247.38
2018-03-16T07:41:32.855Z,97256.27
2018-03-16T07:44:00.999Z,97249.91
2018-03-16T07:46:29.139Z,97258.16
2018-03-16T07:48:57.288Z,97252.45
2018-03-16T07:51:25.406Z,97250.08
2018-03-16T07:53:53.532Z,97248.23
2018-03-16T07:56:21.675Z,97258.60
2018-03-16T07:58:49.820Z,97264.59
2018-03-16T08:01:17.955Z,97258.47
2018-03-16T08:03:46.092Z,97255.42
2018-03-16T08:06:14.232Z,97264.98
2018-03-16T08:08:42.374Z,97259.80
2018-03-16T08:11:10.807Z,97268.44
2018-03-16T08:13:39.017Z,97266.70
2018-03-16T08:16:07.155Z,97274.66
2018-03-16T08:18:35.296Z,97273.05
2018-03-16T08:21:03.515Z,97277.29
2018-03-16T08:23:31.644Z,97270.01
2018-03-16T08:25:59.774Z,97274.66
2018-03-16T08:28:27.895Z,97280.37
2018-03-16T08:30:56.027Z,97271.57
2018-03-16T08:33:25.223Z,97280.89
2018-03-16T08:35:53.343Z,97280.09
2018-03-16T08:38:21.472Z,97275.57
2018-03-16T08:40:49.608Z,97280.77
2018-03-16T08:43:17.737Z,97273.59
2018-03-16T08:45:46.012Z,97285.28
2018-03-16T08:48:14.155Z,97271.72
2018-03-16T08:50:42.319Z,97274.78
2018-03-16T08:53:10.423Z,97275.86
2018-03-16T08:55:38.567Z,97271.59
2018-03-16T08:58:06.699Z,97271.98
2018-03-16T09:00:34.889Z,97267.73
2018-03-16T09:03:03.012Z,97262.70
2018-03-16T09:05:31.144Z,97266.13
2018-03-16T09:07:59.281Z,97253.17
2018-03-16T09:10:27.419Z,97255.39
2018-03-16T09:12:55.570Z,97256.02
2018-03-16T09:15:23.705Z,97250.84
2018-03-16T09:17:51.838Z,97253.47
2018-03-16T09:20:19.968Z,97244.80
2018-03-16T09:22:48.098Z,97250.73
2018-03-16T09:25:16.235Z,97248.05
2018-03-16T09:27:44.355Z,97248.14
2018-03-16T09:30:12.491Z,97246.94
2018-03-16T09:32:40.624Z,97250.67
2018-03-16T09:35:08.752Z,97245.08
2018-03-16T09:37:36.888Z,97241.25
2018-03-16T09:40:05.011Z,97245.38
2018-03-16T09:42:33.146Z,97251.77
2018-03-16T09:45:01.269Z,97248.97
2018-03-16T09:47:29.407Z,97247.66
2018-03-16T09:49:57.531Z,97253.53
2018-03-16T09:52:25.668Z,97244.31
2018-03-16T09:55:05.464Z,97252.14
2018-03-16T09:57:33.593Z,97243.73
2018-03-16T10:00:01.720Z,97243.15
2018-03-16T10:02:29.850Z,97238.33
2018-03-16T10:04:57.980Z,97226.95
2018-03-16T10:07:26.102Z,97231.81
2018-03-16T10:09:54.265Z,97232.87
2018-03-16T10:12:22.381Z,97236.60
2018-03-16T10:14:50.521Z,97240.86
2018-03-16T10:17:18.647Z,97235.48
2018-03-16T10:19:46.768Z,97228.98
2018-03-16T10:22:14.899Z,97240.68
2018-03-16T10:24:43.038Z,97230.50
2018-03-16T10:27:11.207Z,97236.98
2018-03-16T10:29:42.265Z,97237.44
2018-03-16T10:32:10.412Z,97239.09
2018-03-16T10:34:38.569Z,97242.23
2018-03-16T10:37:06.818Z,97244.59
2018-03-16T10:39:35.176Z,97242.70
2018-03-16T10:42:03.326Z,97239.81
2018-03-16T10:44:31.456Z,97243.40
2018-03-16T10:46:59.596Z,97239.08
2018-03-16T10:49:27.726Z,97238.75
2018-03-16T10:51:55.867Z,97237.69
2018-03-16T10:54:24.008Z,97240.98
2018-03-16T10:56:52.130Z,97247.16
2018-03-16T10:59:20.266Z,97240.05
2018-03-16T11:01:54.056Z,97246.86
2018-03-16T11:04:27.659Z,97243.92
2018-03-16T11:07:01.511Z,97245.56
2018-03-16T11:09:40.250Z,97244.36
2018-03-16T11:12:08.384Z,97255.00
2018-03-16T11:14:36.518Z,97252.84
2018-03-16T11:17:04.642Z,97260.52
2018-03-16T11:19:32.788Z,97263.38
2018-03-16T11:22:00.915Z,97260.94
2018-03-16T11:24:29.041Z,97262.88
2018-03-16T11:26:57.177Z,97269.45
2018-03-16T11:29:25.312Z,97262.55
2018-03-16T11:31:53.437Z,97267.69
2018-03-16T11:34:21.557Z,97269.02
2018-03-16T11:36:49.708Z,97268.55
2018-03-16T11:39:17.840Z,97269.76
2018-03-16T11:41:45.968Z,97265.98
2018-03-16T11:44:14.110Z,97274.33
2018-03-16T11:46:42.244Z,97273.66
2018-03-16T11:49:10.471Z,97269.99
2018-03-16T11:51:38.558Z,97267.45
2018-03-16T11:54:06.701Z,97262.24
2018-03-16T11:56:34.851Z,97264.05
2018-03-16T11:59:03.005Z,97260.40
2018-03-16T12:01:31.160Z,97264.41
2018-03-16T12:03:59.355Z,97265.23
2018-03-16T12:06:27.517Z,97259.95
2018-03-16T12:08:55.684Z,97261.30
2018-03-16T12:11:23.800Z,97254.19
2018-03-16T12:13:51.945Z,97255.25
2018-03-16T12:16:20.075Z,97255.05
2018-03-16T12:18:48.226Z,97249.11
2018-03-16T12:21:16.376Z,97243.11
2018-03-16T12:23:47.529Z,97238.48
2018-03-16T12:26:15.664Z,97244.17
2018-03-16T12:28:49.815Z,97243.53
2018-03-16T12:31:12.044Z,97247.72
2018-03-16T12:33:40.198Z,97246.47
2018-03-16T12:36:08.341Z,97244.59
2018-03-16T12:38:36.564Z,97243.25
2018-03-16T12:41:04.705Z,97243.73
2018-03-16T12:43:32.879Z,97245.71
2018-03-16T12:46:01.043Z,97247.87
2018-03-16T12:48:29.676Z,97246.00
2018-03-16T12:50:57.810Z,97248.94
2018-03-16T12:53:26.009Z,97236.23
2018-03-16T12:55:54.110Z,97241.47
2018-03-16T12:58:22.256Z,97237.05
2018-03-16T13:00:50.396Z,97241.63
2018-03-16T13:03:18.565Z,97237.25
2018-03-16T13:05:46.703Z,97240.42
2018-03-16T13:08:14.901Z,97230.25
2018-03-16T13:10:43.099Z,97232.46
2018-03-16T13:13:11.291Z,97235.08
2018-03-16T13:15:39.480Z,97229.59
2018-03-16T13:18:07.639Z,97225.78
2018-03-16T13:20:35.797Z,97228.38
2018-03-16T13:23:04.015Z,97220.52
2018-03-16T13:25:32.187Z,97224.32
2018-03-16T13:28:00.419Z,97215.39
2018-03-16T13:30:28.548Z,97221.99
2018-03-16T13:32:56.745Z,97217.55
2018-03-16T13:35:24.864Z,97208.12
2018-03-16T13:37:53.015Z,97212.31
2018-03-16T13:40:21.196Z,97209.84
2018-03-16T13:42:49.344Z,97206.67
2018-03-16T13:45:17.577Z,97214.61
2018-03-16T13:47:45.710Z,97216.93
2018-03-16T13:50:13.867Z,97216.74
2018-03-16T13:52:42.061Z,97220.78
2018-03-16T13:55:10.194Z,97217.17
2018-03-16T13:57:38.342Z,97217.22
2018-03-16T14:00:17.385Z,97212.92
2018-03-16T14:02:45.542Z,97217.47
2018-03-16T14:05:13.720Z,97214.00
2018-03-16T14:07:41.862Z,97213.77
2018-03-16T14:10:10.138Z,97209.48
2018-03-16T14:12:38.293Z,97207.52
2018-03-16T14:15:06.501Z,97216.59
2018-03-16T14:17:34.701Z,97208.36
2018-03-16T14:20:02.833Z,97198.24
2018-03-16T14:22:30.965Z,97197.88
2018-03-16T14:24:59.101Z,97186.17
2018-03-16T14:27:27.304Z,97185.30
2018-03-16T14:29:55.451Z,97185.02
2018-03-16T14:32:23.584Z,97183.02
2018-03-16T14:34:51.728Z,97184.50
2018-03-16T14:37:19.878Z,97178.63
2018-03-16T14:39:48.010Z,97176.78
2018-03-16T14:42:16.173Z,97166.53
2018-03-16T14:44:44.311Z,97170.59
2018-03-16T14:47:12.439Z,97170.02
2018-03-16T14:49:40.601Z,97169.83
2018-03-16T14:52:08.769Z,97168.34
2018-03-16T14:54:36.890Z,97168.53
2018-03-16T14:57:05.045Z,97157.41
2018-03-16T14:59:33.217Z,97157.73
2018-03-16T15:02:01.360Z,97155.68
2018-03-16T15:04:31.695Z,97167.87
2018-03-16T15:06:59.825Z,97158.26
2018-03-16T15:09:27.957Z,97166.67
2018-03-16T15:11:56.129Z,97162.52
2018-03-16T15:14:24.273Z,97156.73
2018-03-16T15:16:52.412Z,97156.25
2018-03-16T15:19:20.572Z,97152.09
2018-03-16T15:21:48.742Z,97155.14
2018-03-16T15:24:16.924Z,97153.71
2018-03-16T15:26:45.064Z,97157.74
2018-03-16T15:29:13.202Z,97157.14
2018-03-16T15:31:41.380Z,97152.45
2018-03-16T15:34:09.503Z,97152.20
2018-03-16T15:36:37.639Z,97151.52
2018-03-16T15:39:05.851Z,97158.39
2018-03-16T15:41:34.053Z,97157.78
2018-03-16T15:44:02.216Z,97157.33
2018-03-16T15:46:30.340Z,97153.11
2018-03-16T15:48:58.508Z,97155.42
2018-03-16T15:51:26.620Z,97166.58
2018-03-16T15:53:54.820Z,97169.06
2018-03-16T15:56:22.937Z,97160.03
2018-03-16T15:58:51.091Z,97169.53
2018-03-16T16:01:19.231Z,97168.45
2018-03-16T16:03:47.373Z,97157.57
2018-03-16T16:06:15.515Z,97158.20
2018-03-16T16:08:43.688Z,97161.79
2018-03-16T16:11:11.838Z,97168.77
2018-03-16T16:13:39.964Z,97171.22
2018-03-16T16:16:08.104Z,97171.58
2018-03-16T16:18:36.267Z,97170.23
2018-03-16T16:21:04.401Z,97172.33
2018-03-16T16:23:34.361Z,97175.13
2018-03-16T16:26:02.509Z,97176.42
2018-03-16T16:28:30.635Z,97172.80
2018-03-16T16:30:58.809Z,97174.75
2018-03-16T16:33:26.983Z,97175.09
2018-03-16T16:35:55.175Z,97176.25
2018-03-16T16:38:23.366Z,97185.53
2018-03-16T16:40:51.500Z,97201.19
2018-03-16T16:43:19.649Z,97222.06
2018-03-16T16:45:47.761Z,97221.67
2018-03-16T16:48:15.877Z,97220.89
2018-03-16T16:50:44.021Z,97228.54
2018-03-16T16:53:12.149Z,97215.12
2018-03-16T16:55:40.280Z,97225.26
2018-03-16T16:58:08.400Z,97226.61
2018-03-16T17:00:36.544Z,97229.73
2018-03-16T17:03:04.682Z,97233.13
2018-03-16T17:05:32.847Z,97239.77
2018-03-16T17:08:00.961Z,97237.22
2018-03-16T17:10:29.085Z,97240.13
2018-03-16T17:12:57.213Z,97237.60
2018-03-16T17:15:25.321Z,97237.40
2018-03-16T17:17:53.450Z,97240.69
2018-03-16T17:20:21.574Z,97251.88
2018-03-16T17:22:49.736Z,97254.55
2018-03-16T17:25:17.860Z,97261.23
2018-03-16T17:27:46.104Z,97266.94
2018-03-16T17:30:14.217Z,97271.52
2018-03-16T17:32:42.402Z,97272.08
2018-03-16T17:35:10.927Z,97280.82
2018-03-16T17:37:39.043Z,97286.22
2018-03-16T17:40:07.344Z,97290.77
2018-03-16T17:42:35.526Z,97293.98
2018-03-16T17:45:03.628Z,97288.53
2018-03-16T17:47:31.760Z,97295.74
2018-03-16T17:49:59.894Z,97298.53
2018-03-16T17:52:28.026Z,97305.44
2018-03-16T17:54:56.140Z,97299.85
2018-03-16T17:57:24.276Z,97305.48
2018-03-16T17:59:52.405Z,97306.19
2018-03-16T18:02:20.535Z,97305.27
2018-03-16T18:04:48.653Z,97311.54
2018-03-16T18:07:16.795Z,97306.86
2018-03-16T18:09:44.908Z,97309.69
2018-03-16T18:12:13.040Z,97303.97
2018-03-16T18:14:41.222Z,97315.70
2018-03-16T18:17:09.310Z,97323.33
2018-03-16T18:19:37.426Z,97328.00
2018-03-16T18:22:05.541Z,97332.97
2018-03-16T18:24:33.655Z,97336.72
2018-03-16T18:27:01.774Z,97334.45
2018-03-16T18:29:30.599Z,97335.69
2018-03-16T18:31:58.727Z,97333.69
2018-03-16T18:34:26.860Z,97338.89
2018-03-16T18:36:54.972Z,97341.27
2018-03-16T18:39:23.096Z,97358.69
2018-03-16T18:41:51.224Z,97366.02
2018-03-16T18:44:19.339Z,97368.80
2018-03-16T18:46:47.455Z,97366.55
2018-03-16T18:49:15.579Z,97361.22
2018-03-16T18:51:43.689Z,97368.25
2018-03-16T18:54:11.813Z,97367.06
2018-03-16T18:56:39.928Z,97363.34
2018-03-16T18:59:08.057Z,97362.66
2018-03-16T19:01:36.178Z,97355.60
2018-03-16T19:04:04.406Z,97357.47
2018-03-16T19:06:32.538Z,97361.59
2018-03-16T19:09:00.680Z,97358.27
2018-03-16T19:11:28.801Z,97359.21
2018-03-16T19:13:56.917Z,97359.50
2018-03-16T19:16:25.029Z,97356.30
2018-03-16T19:18:53.177Z,97360.82
2018-03-16T19:21:21.303Z,97356.19
2018-03-16T19:23:49.452Z,97358.96
2018-03-16T19:26:17.564Z,97354.95
2018-03-16T19:28:45.702Z,97356.95
2018-03-16T19:31:13.826Z,97357.75
2018-03-16T19:33:41.945Z,97350.19
2018-03-16T19:36:10.077Z,97349.63
2018-03-16T19:38:38.237Z,97355.08
2018-03-16T19:41:06.401Z,97354.55
2018-03-16T19:43:34.541Z,97359.59
2018-03-16T19:46:02.665Z,97354.03
2018-03-16T19:48:30.806Z,97354.52
2018-03-16T19:50:58.946Z,97350.66
2018-03-16T19:53:27.100Z,97356.88
2018-03-16T19:55:55.269Z,97359.94
2018-03-16T19:58:23.411Z,97358.99
2018-03-16T20:00:51.693Z,97361.48
2018-03-16T20:03:20.267Z,97360.55
2018-03-16T20:05:48.413Z,97370.36
2018-03-16T20:08:16.564Z,97362.91
2018-03-16T20:10:44.704Z,97366.48
2018-03-16T20:13:12.822Z,97366.88
2018-03-16T20:15:40.970Z,97372.02
2018-03-16T20:18:09.605Z,97373.63
2018-03-16T20:20:37.756Z,97371.61
2018-03-16T20:23:05.944Z,97368.81
2018-03-16T20:25:34.073Z,97370.66
2018-03-16T20:28:02.231Z,97366.27
2018-03-16T20:30:30.354Z,97361.59
2018-03-16T20:32:58.499Z,97366.09
2018-03-16T20:35:26.648Z,97361.06
2018-03-16T20:37:54.805Z,97363.99
2018-03-16T20:40:22.946Z,97369.42
2018-03-16T20:42:51.092Z,97368.11
2018-03-16T20:45:19.232Z,97373.55
2018-03-16T20:47:47.365Z,97371.59
2018-03-16T20:50:15.519Z,97375.33
2018-03-16T20:52:43.663Z,97381.98
2018-03-16T20:55:11.783Z,97379.86
2018-03-16T20:57:39.903Z,97379.18
2018-03-16T21:00:08.050Z,97376.16
2018-03-16T21:02:36.181Z,97375.08
2018-03-16T21:05:04.317Z,97373.91
2018-03-16T21:07:33.166Z,97375.48
2018-03-16T21:10:01.885Z,97367.92
2018-03-16T21:12:30.039Z,97371.27
2018-03-16T21:14:58.171Z,97383.05
2018-03-16T21:17:26.316Z,97374.05
2018-03-16T21:19:54.450Z,97379.22
2018-03-16T21:22:22.599Z,97375.08
2018-03-16T21:24:50.735Z,97361.28
2018-03-16T21:27:18.868Z,97363.54
2018-03-16T21:29:46.998Z,97363.14
2018-03-16T21:32:15.202Z,97362.34
2018-03-16T21:34:43.326Z,97357.82
2018-03-16T21:37:11.476Z,97358.62
2018-03-16T21:39:39.674Z,97352.38
2018-03-16T21:42:07.795Z,97348.63
2018-03-16T21:44:35.950Z,97342.63
2018-03-16T21:47:04.095Z,97343.13
2018-03-16T21:49:32.325Z,97344.19
2018-03-16T21:52:00.489Z,97354.75
2018-03-16T21:54:28.664Z,97354.89
2018-03-16T21:56:56.792Z,97365.45
2018-03-16T21:59:24.920Z,97373.16
2018-03-16T22:01:53.073Z,97367.69
2018-03-16T22:04:21.188Z,97363.29
2018-03-16T22:06:49.375Z,97372.97
2018-03-16T22:09:17.523Z,97369.91
2018-03-16T22:11:45.655Z,97374.29
2018-03-16T22:14:13.789Z,97376.69
2018-03-16T22:16:41.945Z,97370.82
2018-03-16T22:19:10.704Z,97380.89
2018-03-16T22:21:38.844Z,97382.73
2018-03-16T22:24:06.978Z,97386.70
2018-03-16T22:26:35.096Z,97398.90
2018-03-16T22:29:03.224Z,97399.66
2018-03-16T22:31:31.351Z,97402.31
2018-03-16T22:33:59.481Z,97402.72
2018-03-16T22:36:27.593Z,97402.62
2018-03-16T22:38:55.729Z,97406.89
2018-03-16T22:41:23.860Z,97401.89
2018-03-16T22:43:51.992Z,97401.09
2018-03-16T22:46:20.123Z,97404.81
2018-03-16T22:48:48.244Z,97398.05
2018-03-16T22:51:16.374Z,97399.11
2018-03-16T22:53:44.540Z,97391.30
2018-03-16T22:56:12.668Z,97396.05
2018-03-16T22:58:40.805Z,97394.77
2018-03-16T23:01:08.945Z,97399.69
2018-03-16T23:03:37.101Z,97397.70
2018-03-16T23:06:05.231Z,97387.55
2018-03-16T23:08:33.367Z,97392.98
2018-03-16T23:11:01.510Z,97388.89
2018-03-16T23:13:29.640Z,97393.79
2018-03-16T23:15:57.807Z,97392.06
2018-03-16T23:18:25.924Z,97398.28
2018-03-16T23:20:54.078Z,97391.48
2018-03-16T23:23:22.209Z,97385.00
2018-03-16T23:25:50.335Z,97387.90
2018-03-16T23:28:18.463Z,97379.41
2018-03-16T23:30:46.599Z,97375.02
2018-03-16T23:33:14.724Z,97379.13
2018-03-16T23:35:42.855Z,97372.08
2018-03-16T23:38:11.004Z,97382.55
2018-03-16T23:40:39.137Z,97379.61
2018-03-16T23:43:07.350Z,97385.42
2018-03-16T23:45:35.476Z,97381.18
2018-03-16T23:48:03.612Z,97378.75
2018-03-16T23:50:31.744Z,97374.24
2018-03-16T23:52:59.878Z,97370.48
2018-03-16T23:55:28.091Z,97378.13
2018-03-16T23:57:56.369Z,97375.84
